sensor_id;sensor_type;location;lat;lon;timestamp;temperature;humidity
38265;DHT22;24062;47.480;8.768;2024-02-26T00:02:06;20.90;55.30
38265;DHT22;24062;47.480;8.768;2024-02-26T00:04:34;20.90;55.30
38265;DHT22;24062;47.480;8.768;2024-02-26T00:07:01;21.00;55.40
38265;DHT22;24062;47.480;8.768;2024-02-26T00:09:28;20.90;55.40
38265;DHT22;24062;47.480;8.768;2024-02-26T00:11:55;20.80;55.30
38265;DHT22;24062;47.480;8.768;2024-02-26T00:14:23;20.80;55.40
38265;DHT22;24062;47.480;8.768;2024-02-26T00:16:50;20.80;55.50
38265;DHT22;24062;47.480;8.768;2024-02-26T00:19:17;20.80;55.50
38265;DHT22;24062;47.480;8.768;2024-02-26T00:21:45;20.80;55.60
38265;DHT22;24062;47.480;8.768;2024-02-26T00:24:12;20.70;55.60
38265;DHT22;24062;47.480;8.768;2024-02-26T00:26:39;20.70;55.60
38265;DHT22;24062;47.480;8.768;2024-02-26T00:29:06;20.70;55.60
38265;DHT22;24062;47.480;8.768;2024-02-26T00:31:32;20.70;55.60
38265;DHT22;24062;47.480;8.768;2024-02-26T00:34:00;20.60;55.60
38265;DHT22;24062;47.480;8.768;2024-02-26T00:36:28;20.60;55.70
38265;DHT22;24062;47.480;8.768;2024-02-26T00:38:56;20.60;55.70
38265;DHT22;24062;47.480;8.768;2024-02-26T00:41:23;20.60;55.80
38265;DHT22;24062;47.480;8.768;2024-02-26T00:43:50;20.60;55.70
38265;DHT22;24062;47.480;8.768;2024-02-26T00:46:17;20.60;55.70
38265;DHT22;24062;47.480;8.768;2024-02-26T00:48:44;20.60;55.80
38265;DHT22;24062;47.480;8.768;2024-02-26T00:51:11;20.60;55.80
38265;DHT22;24062;47.480;8.768;2024-02-26T00:53:38;20.60;55.80
38265;DHT22;24062;47.480;8.768;2024-02-26T00:56:06;20.50;55.80
38265;DHT22;24062;47.480;8.768;2024-02-26T00:58:33;20.50;55.80
38265;DHT22;24062;47.480;8.768;2024-02-26T01:01:00;20.50;55.80
38265;DHT22;24062;47.480;8.768;2024-02-26T01:03:27;20.40;55.90
38265;DHT22;24062;47.480;8.768;2024-02-26T01:05:53;20.40;55.90
38265;DHT22;24062;47.480;8.768;2024-02-26T01:08:20;20.40;55.90
38265;DHT22;24062;47.480;8.768;2024-02-26T01:10:47;20.40;55.90
38265;DHT22;24062;47.480;8.768;2024-02-26T01:13:15;20.40;55.90
38265;DHT22;24062;47.480;8.768;2024-02-26T01:15:43;20.40;55.90
38265;DHT22;24062;47.480;8.768;2024-02-26T01:18:10;20.40;55.90
38265;DHT22;24062;47.480;8.768;2024-02-26T01:20:37;20.40;55.90
38265;DHT22;24062;47.480;8.768;2024-02-26T01:23:04;20.40;55.90
38265;DHT22;24062;47.480;8.768;2024-02-26T01:25:30;20.30;55.90
38265;DHT22;24062;47.480;8.768;2024-02-26T01:27:57;20.30;55.90
38265;DHT22;24062;47.480;8.768;2024-02-26T01:30:26;20.30;55.90
38265;DHT22;24062;47.480;8.768;2024-02-26T01:32:52;20.30;55.90
38265;DHT22;24062;47.480;8.768;2024-02-26T01:35:19;20.30;55.90
38265;DHT22;24062;47.480;8.768;2024-02-26T01:37:46;20.30;56.00
38265;DHT22;24062;47.480;8.768;2024-02-26T01:40:13;20.30;56.00
38265;DHT22;24062;47.480;8.768;2024-02-26T01:42:45;20.20;55.90
38265;DHT22;24062;47.480;8.768;2024-02-26T01:45:14;20.30;56.00
38265;DHT22;24062;47.480;8.768;2024-02-26T01:47:49;20.20;55.90
38265;DHT22;24062;47.480;8.768;2024-02-26T01:50:16;20.20;56.00
38265;DHT22;24062;47.480;8.768;2024-02-26T01:52:44;20.20;56.00
38265;DHT22;24062;47.480;8.768;2024-02-26T01:55:12;20.20;56.00
38265;DHT22;24062;47.480;8.768;2024-02-26T01:57:40;20.20;56.00
38265;DHT22;24062;47.480;8.768;2024-02-26T02:00:08;20.20;56.00
38265;DHT22;24062;47.480;8.768;2024-02-26T02:02:36;20.10;55.90
38265;DHT22;24062;47.480;8.768;2024-02-26T02:05:06;20.10;55.90
38265;DHT22;24062;47.480;8.768;2024-02-26T02:07:36;20.10;56.00
38265;DHT22;24062;47.480;8.768;2024-02-26T02:10:04;20.10;56.00
38265;DHT22;24062;47.480;8.768;2024-02-26T02:12:32;20.10;56.00
38265;DHT22;24062;47.480;8.768;2024-02-26T02:15:00;20.10;56.00
38265;DHT22;24062;47.480;8.768;2024-02-26T02:17:27;20.00;56.00
38265;DHT22;24062;47.480;8.768;2024-02-26T02:19:54;20.10;56.10
38265;DHT22;24062;47.480;8.768;2024-02-26T02:22:23;20.10;56.10
38265;DHT22;24062;47.480;8.768;2024-02-26T02:24:51;20.00;56.00
38265;DHT22;24062;47.480;8.768;2024-02-26T02:27:18;20.00;56.00
38265;DHT22;24062;47.480;8.768;2024-02-26T02:29:46;20.00;56.00
38265;DHT22;24062;47.480;8.768;2024-02-26T02:32:14;20.00;56.10
38265;DHT22;24062;47.480;8.768;2024-02-26T02:34:41;20.00;56.10
38265;DHT22;24062;47.480;8.768;2024-02-26T02:37:08;20.00;56.10
38265;DHT22;24062;47.480;8.768;2024-02-26T02:39:36;20.00;56.10
38265;DHT22;24062;47.480;8.768;2024-02-26T02:42:04;20.00;56.10
38265;DHT22;24062;47.480;8.768;2024-02-26T02:44:30;20.00;56.10
38265;DHT22;24062;47.480;8.768;2024-02-26T02:46:57;20.00;56.10
38265;DHT22;24062;47.480;8.768;2024-02-26T02:49:24;20.00;56.10
38265;DHT22;24062;47.480;8.768;2024-02-26T02:51:51;19.90;56.00
38265;DHT22;24062;47.480;8.768;2024-02-26T02:54:19;19.90;56.10
38265;DHT22;24062;47.480;8.768;2024-02-26T02:56:47;19.90;56.00
38265;DHT22;24062;47.480;8.768;2024-02-26T02:59:14;19.90;56.00
38265;DHT22;24062;47.480;8.768;2024-02-26T03:01:40;19.90;56.00
38265;DHT22;24062;47.480;8.768;2024-02-26T03:04:07;19.90;56.00
38265;DHT22;24062;47.480;8.768;2024-02-26T03:06:34;19.90;56.00
38265;DHT22;24062;47.480;8.768;2024-02-26T03:09:01;19.90;56.10
38265;DHT22;24062;47.480;8.768;2024-02-26T03:11:28;19.90;56.10
38265;DHT22;24062;47.480;8.768;2024-02-26T03:13:56;19.90;56.20
38265;DHT22;24062;47.480;8.768;2024-02-26T03:16:23;19.90;56.20
38265;DHT22;24062;47.480;8.768;2024-02-26T03:18:50;19.90;56.20
38265;DHT22;24062;47.480;8.768;2024-02-26T03:21:18;20.00;56.10
38265;DHT22;24062;47.480;8.768;2024-02-26T03:23:45;20.10;56.00
38265;DHT22;24062;47.480;8.768;2024-02-26T03:26:12;20.20;55.90
38265;DHT22;24062;47.480;8.768;2024-02-26T03:28:40;20.20;55.70
38265;DHT22;24062;47.480;8.768;2024-02-26T03:31:08;20.30;55.70
38265;DHT22;24062;47.480;8.768;2024-02-26T03:33:36;20.40;55.70
38265;DHT22;24062;47.480;8.768;2024-02-26T03:36:03;20.40;55.60
38265;DHT22;24062;47.480;8.768;2024-02-26T03:38:30;20.50;55.60
38265;DHT22;24062;47.480;8.768;2024-02-26T03:40:57;20.50;55.50
38265;DHT22;24062;47.480;8.768;2024-02-26T03:43:24;20.60;55.40
38265;DHT22;24062;47.480;8.768;2024-02-26T03:45:51;20.70;55.40
38265;DHT22;24062;47.480;8.768;2024-02-26T03:48:19;20.70;55.40
38265;DHT22;24062;47.480;8.768;2024-02-26T03:50:46;20.70;55.30
38265;DHT22;24062;47.480;8.768;2024-02-26T03:53:13;20.70;55.20
38265;DHT22;24062;47.480;8.768;2024-02-26T03:55:40;20.80;55.20
38265;DHT22;24062;47.480;8.768;2024-02-26T03:58:08;20.80;55.20
38265;DHT22;24062;47.480;8.768;2024-02-26T04:00:35;20.80;55.10
38265;DHT22;24062;47.480;8.768;2024-02-26T04:03:02;20.80;55.10
38265;DHT22;24062;47.480;8.768;2024-02-26T04:05:30;20.80;55.00
38265;DHT22;24062;47.480;8.768;2024-02-26T04:07:57;20.90;55.00
38265;DHT22;24062;47.480;8.768;2024-02-26T04:10:24;20.90;55.00
38265;DHT22;24062;47.480;8.768;2024-02-26T04:12:51;21.00;55.00
38265;DHT22;24062;47.480;8.768;2024-02-26T04:15:18;20.90;54.90
38265;DHT22;24062;47.480;8.768;2024-02-26T04:17:44;20.90;54.90
38265;DHT22;24062;47.480;8.768;2024-02-26T04:20:14;20.90;54.90
38265;DHT22;24062;47.480;8.768;2024-02-26T04:22:43;21.00;54.90
38265;DHT22;24062;47.480;8.768;2024-02-26T04:25:11;21.00;54.90
38265;DHT22;24062;47.480;8.768;2024-02-26T04:27:38;21.00;54.80
38265;DHT22;24062;47.480;8.768;2024-02-26T04:30:05;21.00;54.80
38265;DHT22;24062;47.480;8.768;2024-02-26T04:32:33;21.10;54.80
38265;DHT22;24062;47.480;8.768;2024-02-26T04:35:00;21.00;54.70
38265;DHT22;24062;47.480;8.768;2024-02-26T04:37:26;21.10;54.80
38265;DHT22;24062;47.480;8.768;2024-02-26T04:39:58;21.10;54.70
38265;DHT22;24062;47.480;8.768;2024-02-26T04:42:25;21.10;54.70
38265;DHT22;24062;47.480;8.768;2024-02-26T04:44:52;21.10;54.70
38265;DHT22;24062;47.480;8.768;2024-02-26T04:47:19;21.10;54.70
38265;DHT22;24062;47.480;8.768;2024-02-26T04:49:47;21.10;54.70
38265;DHT22;24062;47.480;8.768;2024-02-26T04:52:14;21.10;54.60
38265;DHT22;24062;47.480;8.768;2024-02-26T04:54:41;21.10;54.60
38265;DHT22;24062;47.480;8.768;2024-02-26T04:57:09;21.10;54.60
38265;DHT22;24062;47.480;8.768;2024-02-26T04:59:36;21.20;54.70
38265;DHT22;24062;47.480;8.768;2024-02-26T05:02:03;21.20;54.70
38265;DHT22;24062;47.480;8.768;2024-02-26T05:04:30;21.20;54.60
38265;DHT22;24062;47.480;8.768;2024-02-26T05:06:57;21.20;54.60
38265;DHT22;24062;47.480;8.768;2024-02-26T05:09:24;21.20;54.50
38265;DHT22;24062;47.480;8.768;2024-02-26T05:11:51;21.20;54.50
38265;DHT22;24062;47.480;8.768;2024-02-26T05:14:19;21.30;54.60
38265;DHT22;24062;47.480;8.768;2024-02-26T05:16:47;21.30;54.60
38265;DHT22;24062;47.480;8.768;2024-02-26T05:19:14;21.20;54.50
38265;DHT22;24062;47.480;8.768;2024-02-26T05:21:41;21.20;54.50
38265;DHT22;24062;47.480;8.768;2024-02-26T05:24:09;21.30;54.60
38265;DHT22;24062;47.480;8.768;2024-02-26T05:26:36;21.20;54.50
38265;DHT22;24062;47.480;8.768;2024-02-26T05:29:03;21.30;54.60
38265;DHT22;24062;47.480;8.768;2024-02-26T05:31:31;21.30;54.50
38265;DHT22;24062;47.480;8.768;2024-02-26T05:33:58;21.30;54.50
38265;DHT22;24062;47.480;8.768;2024-02-26T05:36:25;21.30;54.50
38265;DHT22;24062;47.480;8.768;2024-02-26T05:38:54;21.40;54.50
38265;DHT22;24062;47.480;8.768;2024-02-26T05:41:21;21.40;54.40
38265;DHT22;24062;47.480;8.768;2024-02-26T05:43:51;21.40;54.40
38265;DHT22;24062;47.480;8.768;2024-02-26T05:46:18;21.40;54.40
38265;DHT22;24062;47.480;8.768;2024-02-26T05:48:47;21.40;54.30
38265;DHT22;24062;47.480;8.768;2024-02-26T05:51:14;21.30;54.30
38265;DHT22;24062;47.480;8.768;2024-02-26T05:53:41;21.40;54.40
38265;DHT22;24062;47.480;8.768;2024-02-26T05:56:08;21.40;54.40
38265;DHT22;24062;47.480;8.768;2024-02-26T05:58:35;21.40;54.30
38265;DHT22;24062;47.480;8.768;2024-02-26T06:01:02;21.40;54.30
38265;DHT22;24062;47.480;8.768;2024-02-26T06:03:29;21.40;54.30
38265;DHT22;24062;47.480;8.768;2024-02-26T06:05:58;21.40;54.30
38265;DHT22;24062;47.480;8.768;2024-02-26T06:08:25;21.40;54.30
38265;DHT22;24062;47.480;8.768;2024-02-26T06:10:51;21.40;54.30
38265;DHT22;24062;47.480;8.768;2024-02-26T06:13:18;21.40;54.30
38265;DHT22;24062;47.480;8.768;2024-02-26T06:15:46;21.40;54.80
38265;DHT22;24062;47.480;8.768;2024-02-26T06:18:13;21.50;54.30
38265;DHT22;24062;47.480;8.768;2024-02-26T06:20:40;21.40;54.30
38265;DHT22;24062;47.480;8.768;2024-02-26T06:23:08;21.40;54.30
38265;DHT22;24062;47.480;8.768;2024-02-26T06:25:35;21.40;54.20
38265;DHT22;24062;47.480;8.768;2024-02-26T06:28:02;21.50;54.30
38265;DHT22;24062;47.480;8.768;2024-02-26T06:30:30;21.40;54.20
38265;DHT22;24062;47.480;8.768;2024-02-26T06:32:57;21.50;54.20
38265;DHT22;24062;47.480;8.768;2024-02-26T06:35:24;21.50;54.30
38265;DHT22;24062;47.480;8.768;2024-02-26T06:37:50;21.50;54.30
38265;DHT22;24062;47.480;8.768;2024-02-26T06:40:19;21.50;54.20
38265;DHT22;24062;47.480;8.768;2024-02-26T06:42:46;21.60;54.30
38265;DHT22;24062;47.480;8.768;2024-02-26T06:45:13;21.60;54.30
38265;DHT22;24062;47.480;8.768;2024-02-26T06:47:40;21.60;54.30
38265;DHT22;24062;47.480;8.768;2024-02-26T06:50:09;21.60;54.20
38265;DHT22;24062;47.480;8.768;2024-02-26T06:52:35;21.60;54.20
38265;DHT22;24062;47.480;8.768;2024-02-26T06:55:03;21.60;54.10
38265;DHT22;24062;47.480;8.768;2024-02-26T06:57:32;21.60;54.20
38265;DHT22;24062;47.480;8.768;2024-02-26T06:59:58;21.60;54.20
38265;DHT22;24062;47.480;8.768;2024-02-26T07:02:25;21.60;54.10
38265;DHT22;24062;47.480;8.768;2024-02-26T07:04:52;21.60;54.00
38265;DHT22;24062;47.480;8.768;2024-02-26T07:07:19;21.70;54.00
38265;DHT22;24062;47.480;8.768;2024-02-26T07:09:48;21.70;54.00
38265;DHT22;24062;47.480;8.768;2024-02-26T07:12:15;21.80;54.00
38265;DHT22;24062;47.480;8.768;2024-02-26T07:14:43;21.80;54.00
38265;DHT22;24062;47.480;8.768;2024-02-26T07:17:11;21.70;53.90
38265;DHT22;24062;47.480;8.768;2024-02-26T07:19:38;21.70;53.90
38265;DHT22;24062;47.480;8.768;2024-02-26T07:22:05;21.80;53.90
38265;DHT22;24062;47.480;8.768;2024-02-26T07:24:32;21.70;53.90
38265;DHT22;24062;47.480;8.768;2024-02-26T07:26:59;21.70;53.80
38265;DHT22;24062;47.480;8.768;2024-02-26T07:29:25;21.80;53.90
38265;DHT22;24062;47.480;8.768;2024-02-26T07:31:54;21.80;53.80
38265;DHT22;24062;47.480;8.768;2024-02-26T07:34:21;21.80;53.70
38265;DHT22;24062;47.480;8.768;2024-02-26T07:36:53;21.90;53.80
38265;DHT22;24062;47.480;8.768;2024-02-26T07:39:20;21.90;53.70
38265;DHT22;24062;47.480;8.768;2024-02-26T07:41:47;21.90;53.70
38265;DHT22;24062;47.480;8.768;2024-02-26T07:44:17;22.00;53.70
38265;DHT22;24062;47.480;8.768;2024-02-26T07:46:44;22.10;53.70
38265;DHT22;24062;47.480;8.768;2024-02-26T07:49:12;22.30;53.30
38265;DHT22;24062;47.480;8.768;2024-02-26T07:51:39;22.40;53.20
38265;DHT22;24062;47.480;8.768;2024-02-26T07:54:06;22.40;53.00
38265;DHT22;24062;47.480;8.768;2024-02-26T07:56:33;22.50;53.00
38265;DHT22;24062;47.480;8.768;2024-02-26T07:59:00;22.50;52.90
38265;DHT22;24062;47.480;8.768;2024-02-26T08:01:26;22.60;52.90
38265;DHT22;24062;47.480;8.768;2024-02-26T08:03:53;22.60;52.80
38265;DHT22;24062;47.480;8.768;2024-02-26T08:06:23;23.00;52.60
38265;DHT22;24062;47.480;8.768;2024-02-26T08:08:50;23.70;52.20
38265;DHT22;24062;47.480;8.768;2024-02-26T08:11:17;24.30;51.50
38265;DHT22;24062;47.480;8.768;2024-02-26T08:13:43;24.60;50.80
38265;DHT22;24062;47.480;8.768;2024-02-26T08:16:10;24.80;50.30
38265;DHT22;24062;47.480;8.768;2024-02-26T08:18:37;24.80;50.10
38265;DHT22;24062;47.480;8.768;2024-02-26T08:21:04;25.10;49.90
38265;DHT22;24062;47.480;8.768;2024-02-26T08:23:32;25.30;49.60
38265;DHT22;24062;47.480;8.768;2024-02-26T08:25:59;25.50;49.40
38265;DHT22;24062;47.480;8.768;2024-02-26T08:28:26;25.70;49.10
38265;DHT22;24062;47.480;8.768;2024-02-26T08:30:53;25.50;48.90
38265;DHT22;24062;47.480;8.768;2024-02-26T08:33:20;25.50;49.00
38265;DHT22;24062;47.480;8.768;2024-02-26T08:35:47;25.40;49.10
38265;DHT22;24062;47.480;8.768;2024-02-26T08:38:14;25.40;49.10
38265;DHT22;24062;47.480;8.768;2024-02-26T08:40:42;27.10;48.10
38265;DHT22;24062;47.480;8.768;2024-02-26T08:43:09;28.50;46.10
38265;DHT22;24062;47.480;8.768;2024-02-26T08:45:36;29.30;44.40
38265;DHT22;24062;47.480;8.768;2024-02-26T08:48:03;31.80;42.40
38265;DHT22;24062;47.480;8.768;2024-02-26T08:50:30;32.30;40.60
38265;DHT22;24062;47.480;8.768;2024-02-26T08:52:57;32.70;40.40
38265;DHT22;24062;47.480;8.768;2024-02-26T08:55:24;34.50;39.00
38265;DHT22;24062;47.480;8.768;2024-02-26T08:57:52;36.20;37.40
38265;DHT22;24062;47.480;8.768;2024-02-26T09:00:19;36.40;36.00
38265;DHT22;24062;47.480;8.768;2024-02-26T09:02:47;34.20;36.80
38265;DHT22;24062;47.480;8.768;2024-02-26T09:05:15;31.50;39.80
38265;DHT22;24062;47.480;8.768;2024-02-26T09:07:41;29.50;41.20
38265;DHT22;24062;47.480;8.768;2024-02-26T09:10:09;28.30;43.00
38265;DHT22;24062;47.480;8.768;2024-02-26T09:12:36;27.30;44.30
38265;DHT22;24062;47.480;8.768;2024-02-26T09:15:07;26.50;45.40
38265;DHT22;24062;47.480;8.768;2024-02-26T09:17:34;26.00;46.30
38265;DHT22;24062;47.480;8.768;2024-02-26T09:20:02;25.60;47.10
38265;DHT22;24062;47.480;8.768;2024-02-26T09:22:29;25.20;47.70
38265;DHT22;24062;47.480;8.768;2024-02-26T09:24:56;24.80;48.20
38265;DHT22;24062;47.480;8.768;2024-02-26T09:27:23;24.60;48.70
38265;DHT22;24062;47.480;8.768;2024-02-26T09:29:50;24.40;49.00
38265;DHT22;24062;47.480;8.768;2024-02-26T09:32:18;24.30;49.20
38265;DHT22;24062;47.480;8.768;2024-02-26T09:34:45;24.20;49.40
38265;DHT22;24062;47.480;8.768;2024-02-26T09:37:12;24.10;49.60
38265;DHT22;24062;47.480;8.768;2024-02-26T09:39:39;24.00;49.70
38265;DHT22;24062;47.480;8.768;2024-02-26T09:42:06;23.90;49.90
38265;DHT22;24062;47.480;8.768;2024-02-26T09:44:36;23.90;50.00
38265;DHT22;24062;47.480;8.768;2024-02-26T09:47:08;23.80;50.10
38265;DHT22;24062;47.480;8.768;2024-02-26T09:49:37;23.80;50.30
38265;DHT22;24062;47.480;8.768;2024-02-26T09:52:05;23.70;50.20
38265;DHT22;24062;47.480;8.768;2024-02-26T09:54:34;23.80;50.30
38265;DHT22;24062;47.480;8.768;2024-02-26T09:57:03;23.80;50.30
38265;DHT22;24062;47.480;8.768;2024-02-26T09:59:37;23.80;50.30
38265;DHT22;24062;47.480;8.768;2024-02-26T10:02:07;23.80;50.30
38265;DHT22;24062;47.480;8.768;2024-02-26T10:04:37;23.80;50.40
38265;DHT22;24062;47.480;8.768;2024-02-26T10:07:05;23.80;50.40
38265;DHT22;24062;47.480;8.768;2024-02-26T10:09:36;23.70;50.40
38265;DHT22;24062;47.480;8.768;2024-02-26T10:12:04;23.70;50.50
38265;DHT22;24062;47.480;8.768;2024-02-26T10:14:31;23.60;50.60
38265;DHT22;24062;47.480;8.768;2024-02-26T10:16:59;23.50;50.60
38265;DHT22;24062;47.480;8.768;2024-02-26T10:19:27;23.50;50.70
38265;DHT22;24062;47.480;8.768;2024-02-26T10:22:00;23.40;50.80
38265;DHT22;24062;47.480;8.768;2024-02-26T10:24:27;23.40;50.80
38265;DHT22;24062;47.480;8.768;2024-02-26T10:26:55;23.40;50.90
38265;DHT22;24062;47.480;8.768;2024-02-26T10:29:24;23.40;51.10
38265;DHT22;24062;47.480;8.768;2024-02-26T10:31:52;23.30;51.00
38265;DHT22;24062;47.480;8.768;2024-02-26T10:34:19;23.30;51.10
38265;DHT22;24062;47.480;8.768;2024-02-26T10:36:46;23.30;51.20
38265;DHT22;24062;47.480;8.768;2024-02-26T10:39:14;23.30;51.20
38265;DHT22;24062;47.480;8.768;2024-02-26T10:41:42;23.20;51.20
38265;DHT22;24062;47.480;8.768;2024-02-26T10:44:10;23.20;51.20
38265;DHT22;24062;47.480;8.768;2024-02-26T10:46:38;23.20;51.20
38265;DHT22;24062;47.480;8.768;2024-02-26T10:49:05;23.20;51.30
38265;DHT22;24062;47.480;8.768;2024-02-26T10:51:37;23.20;51.30
38265;DHT22;24062;47.480;8.768;2024-02-26T10:54:06;23.20;51.40
38265;DHT22;24062;47.480;8.768;2024-02-26T10:56:37;23.20;51.40
38265;DHT22;24062;47.480;8.768;2024-02-26T10:59:07;23.10;51.40
38265;DHT22;24062;47.480;8.768;2024-02-26T11:01:36;23.10;51.50
38265;DHT22;24062;47.480;8.768;2024-02-26T11:04:04;23.10;51.50
38265;DHT22;24062;47.480;8.768;2024-02-26T11:06:31;23.10;51.50
38265;DHT22;24062;47.480;8.768;2024-02-26T11:09:01;23.10;51.50
38265;DHT22;24062;47.480;8.768;2024-02-26T11:11:29;23.10;51.60
38265;DHT22;24062;47.480;8.768;2024-02-26T11:13:59;23.10;51.60
38265;DHT22;24062;47.480;8.768;2024-02-26T11:16:27;23.10;51.70
38265;DHT22;24062;47.480;8.768;2024-02-26T11:18:55;23.10;51.70
38265;DHT22;24062;47.480;8.768;2024-02-26T11:21:24;23.00;51.70
38265;DHT22;24062;47.480;8.768;2024-02-26T11:24:04;23.00;51.80
38265;DHT22;24062;47.480;8.768;2024-02-26T11:26:33;23.00;51.80
38265;DHT22;24062;47.480;8.768;2024-02-26T11:29:03;23.00;51.90
38265;DHT22;24062;47.480;8.768;2024-02-26T11:31:30;23.00;51.90
38265;DHT22;24062;47.480;8.768;2024-02-26T11:33:58;23.00;51.90
38265;DHT22;24062;47.480;8.768;2024-02-26T11:36:25;23.00;51.90
38265;DHT22;24062;47.480;8.768;2024-02-26T11:38:52;23.00;52.00
38265;DHT22;24062;47.480;8.768;2024-02-26T11:41:20;23.00;51.90
38265;DHT22;24062;47.480;8.768;2024-02-26T11:43:50;23.10;52.00
38265;DHT22;24062;47.480;8.768;2024-02-26T11:46:29;23.10;52.00
38265;DHT22;24062;47.480;8.768;2024-02-26T11:48:59;23.10;52.00
38265;DHT22;24062;47.480;8.768;2024-02-26T11:51:27;23.10;52.00
38265;DHT22;24062;47.480;8.768;2024-02-26T11:53:54;23.10;51.90
38265;DHT22;24062;47.480;8.768;2024-02-26T11:56:23;23.10;51.90
38265;DHT22;24062;47.480;8.768;2024-02-26T11:59:00;23.10;51.90
38265;DHT22;24062;47.480;8.768;2024-02-26T12:01:42;23.10;52.00
38265;DHT22;24062;47.480;8.768;2024-02-26T12:04:13;23.10;52.00
38265;DHT22;24062;47.480;8.768;2024-02-26T12:06:46;23.10;52.10
38265;DHT22;24062;47.480;8.768;2024-02-26T12:09:13;23.10;52.00
38265;DHT22;24062;47.480;8.768;2024-02-26T12:11:40;23.10;52.10
38265;DHT22;24062;47.480;8.768;2024-02-26T12:14:09;23.10;52.00
38265;DHT22;24062;47.480;8.768;2024-02-26T12:16:37;23.10;52.00
38265;DHT22;24062;47.480;8.768;2024-02-26T12:19:07;23.10;52.00
38265;DHT22;24062;47.480;8.768;2024-02-26T12:21:35;23.10;52.50
38265;DHT22;24062;47.480;8.768;2024-02-26T12:24:10;23.10;51.90
38265;DHT22;24062;47.480;8.768;2024-02-26T12:26:38;23.20;51.80
38265;DHT22;24062;47.480;8.768;2024-02-26T12:29:05;23.20;51.80
38265;DHT22;24062;47.480;8.768;2024-02-26T12:31:32;23.30;51.80
38265;DHT22;24062;47.480;8.768;2024-02-26T12:33:59;23.30;51.80
38265;DHT22;24062;47.480;8.768;2024-02-26T12:36:28;23.30;51.80
38265;DHT22;24062;47.480;8.768;2024-02-26T12:38:55;23.30;51.70
38265;DHT22;24062;47.480;8.768;2024-02-26T12:41:22;23.40;51.80
38265;DHT22;24062;47.480;8.768;2024-02-26T12:43:49;23.40;51.70
38265;DHT22;24062;47.480;8.768;2024-02-26T12:46:16;23.40;51.70
38265;DHT22;24062;47.480;8.768;2024-02-26T12:48:43;23.40;51.70
38265;DHT22;24062;47.480;8.768;2024-02-26T12:51:11;23.40;51.60
38265;DHT22;24062;47.480;8.768;2024-02-26T12:53:40;23.40;51.50
38265;DHT22;24062;47.480;8.768;2024-02-26T12:56:08;23.50;51.70
38265;DHT22;24062;47.480;8.768;2024-02-26T12:58:36;23.50;51.60
38265;DHT22;24062;47.480;8.768;2024-02-26T13:01:05;23.50;51.50
38265;DHT22;24062;47.480;8.768;2024-02-26T13:03:33;23.60;51.50
38265;DHT22;24062;47.480;8.768;2024-02-26T13:06:02;23.60;51.50
38265;DHT22;24062;47.480;8.768;2024-02-26T13:08:31;23.60;51.50
38265;DHT22;24062;47.480;8.768;2024-02-26T13:11:00;23.60;51.50
38265;DHT22;24062;47.480;8.768;2024-02-26T13:13:27;23.70;51.50
38265;DHT22;24062;47.480;8.768;2024-02-26T13:16:02;23.70;51.50
38265;DHT22;24062;47.480;8.768;2024-02-26T13:18:29;23.70;51.50
38265;DHT22;24062;47.480;8.768;2024-02-26T13:21:09;23.70;51.50
38265;DHT22;24062;47.480;8.768;2024-02-26T13:23:37;23.60;51.50
38265;DHT22;24062;47.480;8.768;2024-02-26T13:26:05;23.60;51.50
38265;DHT22;24062;47.480;8.768;2024-02-26T13:28:32;23.60;51.60
38265;DHT22;24062;47.480;8.768;2024-02-26T13:31:00;23.50;51.60
38265;DHT22;24062;47.480;8.768;2024-02-26T13:33:29;23.50;51.60
38265;DHT22;24062;47.480;8.768;2024-02-26T13:35:57;23.60;51.70
38265;DHT22;24062;47.480;8.768;2024-02-26T13:38:24;23.50;51.70
38265;DHT22;24062;47.480;8.768;2024-02-26T13:40:51;23.60;51.80
38265;DHT22;24062;47.480;8.768;2024-02-26T13:43:19;23.60;51.70
38265;DHT22;24062;47.480;8.768;2024-02-26T13:45:46;23.50;51.70
38265;DHT22;24062;47.480;8.768;2024-02-26T13:48:13;23.50;51.70
38265;DHT22;24062;47.480;8.768;2024-02-26T13:50:41;23.60;51.80
38265;DHT22;24062;47.480;8.768;2024-02-26T13:53:08;23.50;51.80
38265;DHT22;24062;47.480;8.768;2024-02-26T13:55:35;23.50;51.80
38265;DHT22;24062;47.480;8.768;2024-02-26T13:58:02;23.50;51.80
38265;DHT22;24062;47.480;8.768;2024-02-26T14:00:31;23.50;51.90
38265;DHT22;24062;47.480;8.768;2024-02-26T14:02:59;23.40;51.80
38265;DHT22;24062;47.480;8.768;2024-02-26T14:05:26;23.40;51.90
38265;DHT22;24062;47.480;8.768;2024-02-26T14:07:53;23.40;51.90
38265;DHT22;24062;47.480;8.768;2024-02-26T14:10:20;23.40;52.00
38265;DHT22;24062;47.480;8.768;2024-02-26T14:12:47;23.40;52.00
38265;DHT22;24062;47.480;8.768;2024-02-26T14:15:14;23.30;52.00
38265;DHT22;24062;47.480;8.768;2024-02-26T14:17:42;23.30;52.00
38265;DHT22;24062;47.480;8.768;2024-02-26T14:20:10;23.30;52.10
38265;DHT22;24062;47.480;8.768;2024-02-26T14:22:37;23.30;52.10
38265;DHT22;24062;47.480;8.768;2024-02-26T14:25:04;23.30;52.10
38265;DHT22;24062;47.480;8.768;2024-02-26T14:27:31;23.20;52.10
38265;DHT22;24062;47.480;8.768;2024-02-26T14:29:58;23.30;52.20
38265;DHT22;24062;47.480;8.768;2024-02-26T14:32:25;23.30;52.20
38265;DHT22;24062;47.480;8.768;2024-02-26T14:34:55;23.20;52.20
38265;DHT22;24062;47.480;8.768;2024-02-26T14:37:22;23.20;52.20
38265;DHT22;24062;47.480;8.768;2024-02-26T14:39:49;23.20;52.20
38265;DHT22;24062;47.480;8.768;2024-02-26T14:42:17;23.20;52.30
38265;DHT22;24062;47.480;8.768;2024-02-26T14:44:44;23.20;52.30
38265;DHT22;24062;47.480;8.768;2024-02-26T14:47:13;23.20;52.30
38265;DHT22;24062;47.480;8.768;2024-02-26T14:49:40;23.10;52.20
38265;DHT22;24062;47.480;8.768;2024-02-26T14:52:08;23.20;52.40
38265;DHT22;24062;47.480;8.768;2024-02-26T14:54:36;23.10;52.30
38265;DHT22;24062;47.480;8.768;2024-02-26T14:57:04;23.20;52.40
38265;DHT22;24062;47.480;8.768;2024-02-26T14:59:32;23.10;52.30
38265;DHT22;24062;47.480;8.768;2024-02-26T15:01:59;23.10;52.30
38265;DHT22;24062;47.480;8.768;2024-02-26T15:04:26;23.10;52.30
38265;DHT22;24062;47.480;8.768;2024-02-26T15:06:53;23.10;52.30
38265;DHT22;24062;47.480;8.768;2024-02-26T15:09:22;23.10;52.40
38265;DHT22;24062;47.480;8.768;2024-02-26T15:11:49;23.10;52.40
38265;DHT22;24062;47.480;8.768;2024-02-26T15:14:16;23.10;52.40
38265;DHT22;24062;47.480;8.768;2024-02-26T15:16:43;23.10;52.40
38265;DHT22;24062;47.480;8.768;2024-02-26T15:19:10;23.10;52.40
38265;DHT22;24062;47.480;8.768;2024-02-26T15:21:42;23.10;52.40
38265;DHT22;24062;47.480;8.768;2024-02-26T15:24:09;23.10;52.40
38265;DHT22;24062;47.480;8.768;2024-02-26T15:26:38;23.20;52.50
38265;DHT22;24062;47.480;8.768;2024-02-26T15:29:05;23.10;52.40
38265;DHT22;24062;47.480;8.768;2024-02-26T15:31:33;23.10;52.40
38265;DHT22;24062;47.480;8.768;2024-02-26T15:34:00;23.10;52.40